createdAt,value
2019-05-06T00:01:11.289Z,100975.39
2019-05-06T00:03:38.445Z,100972.97
2019-05-06T00:06:05.516Z,100970.14
2019-05-06T00:08:34.568Z,100976.61
2019-05-06T00:11:01.877Z,100977.92
2019-05-06T00:13:29.388Z,100974.08
2019-05-06T00:15:56.615Z,100974.16
2019-05-06T00:18:24.528Z,100969.97
2019-05-06T00:20:51.724Z,100974.16
2019-05-06T00:23:24.995Z,100975.47
2019-05-06T00:26:29.515Z,100972.77
2019-05-06T00:28:59.793Z,100982.98
2019-05-06T00:31:26.949Z,100979.24
2019-05-06T00:33:54.396Z,100977.84
2019-05-06T00:36:23.589Z,100981.38
2019-05-06T00:38:53.986Z,100982.98
2019-05-06T00:41:25.450Z,100986.74
2019-05-06T00:43:54.585Z,100981.30
2019-05-06T00:46:21.653Z,100989.45
2019-05-06T00:48:48.825Z,100986.37
2019-05-06T00:51:16.295Z,100985.97
2019-05-06T00:53:47.246Z,100989.91
2019-05-06T00:56:14.415Z,100988.34
2019-05-06T00:58:43.310Z,100992.45
2019-05-06T01:01:24.042Z,100985.60
2019-05-06T01:03:40.040Z,100990.69
2019-05-06T01:06:07.294Z,100989.83
2019-05-06T01:08:35.023Z,100995.16
2019-05-06T01:11:04.061Z,100993.20
2019-05-06T01:13:43.793Z,100994.30
2019-05-06T01:16:13.022Z,100996.55
2019-05-06T01:18:40.156Z,100996.55
2019-05-06T01:21:09.877Z,100995.78
2019-05-06T01:23:39.816Z,100995.98
2019-05-06T01:26:06.891Z,100992.41
2019-05-06T01:28:34.193Z,100998.98
2019-05-06T01:31:01.328Z,100997.30
2019-05-06T01:33:28.496Z,100993.73
2019-05-06T01:35:55.570Z,100992.05
2019-05-06T01:38:30.509Z,100995.61
2019-05-06T01:41:33.838Z,100988.96
2019-05-06T01:44:01.507Z,100999.34
2019-05-06T01:46:28.546Z,101004.42
2019-05-06T01:48:56.239Z,101001.87
2019-05-06T01:51:24.270Z,101014.12
2019-05-06T01:53:51.494Z,101016.09
2019-05-06T01:56:18.662Z,101013.66
2019-05-06T01:58:46.190Z,101013.45
2019-05-06T02:01:14.742Z,101018.03
2019-05-06T02:03:44.161Z,101019.73
2019-05-06T02:06:13.890Z,101021.32
2019-05-06T02:08:40.911Z,101014.18
2019-05-06T02:11:08.067Z,101015.80
2019-05-06T02:13:35.265Z,101011.83
2019-05-06T02:16:03.966Z,101010.84
2019-05-06T02:18:31.189Z,101011.47
2019-05-06T02:21:05.448Z,101013.80
2019-05-06T02:23:35.930Z,101012.61
2019-05-06T02:26:04.856Z,101015.38
2019-05-06T02:28:34.355Z,101022.36
2019-05-06T02:31:20.633Z,101018.56
2019-05-06T02:34:10.108Z,101024.70
2019-05-06T02:37:05.979Z,101023.84
2019-05-06T02:39:34.138Z,101024.09
2019-05-06T02:42:03.783Z,101025.72
2019-05-06T02:44:33.371Z,101025.59
2019-05-06T02:47:13.568Z,101032.53
2019-05-06T02:49:53.481Z,101029.05
2019-05-06T02:52:22.878Z,101031.59
2019-05-06T02:54:50.026Z,101034.82
2019-05-06T02:57:17.186Z,101029.41
2019-05-06T02:59:44.404Z,101032.95
2019-05-06T03:02:13.967Z,101034.66
2019-05-06T03:04:43.482Z,101030.27
2019-05-06T03:07:09.653Z,101035.86
2019-05-06T03:09:36.815Z,101036.09
2019-05-06T03:12:04.128Z,101029.78
2019-05-06T03:14:34.221Z,101030.68
2019-05-06T03:17:03.259Z,101029.89
2019-05-06T03:19:30.654Z,101029.51
2019-05-06T03:22:20.450Z,101031.03
2019-05-06T03:24:54.480Z,101033.42
2019-05-06T03:27:23.503Z,101029.51
2019-05-06T03:29:53.461Z,101030.56
2019-05-06T03:32:25.155Z,101033.71
2019-05-06T03:35:08.970Z,101026.93
2019-05-06T03:37:17.861Z,101032.59
2019-05-06T03:39:45.068Z,101036.41
2019-05-06T03:42:16.001Z,101028.47
2019-05-06T03:44:43.956Z,101036.25
2019-05-06T03:47:26.555Z,101035.16
2019-05-06T03:49:54.794Z,101038.25
2019-05-06T03:52:24.001Z,101041.78
2019-05-06T03:54:53.674Z,101035.16
2019-05-06T03:57:23.323Z,101043.53
2019-05-06T03:59:52.907Z,101047.27
2019-05-06T04:02:20.264Z,101047.72
2019-05-06T04:04:47.671Z,101045.20
2019-05-06T04:07:15.070Z,101051.57
2019-05-06T04:09:44.241Z,101046.19
2019-05-06T04:12:12.814Z,101047.38
2019-05-06T04:14:43.107Z,101045.42
2019-05-06T04:17:17.537Z,101052.15
2019-05-06T04:19:48.828Z,101047.27
2019-05-06T04:22:35.641Z,101049.78
2019-05-06T04:25:14.407Z,101055.00
2019-05-06T04:27:53.690Z,101057.88
2019-05-06T04:30:24.069Z,101063.41
2019-05-06T04:32:52.892Z,101062.44
2019-05-06T04:35:19.284Z,101060.07
2019-05-06T04:37:46.775Z,101066.27
2019-05-06T04:40:14.025Z,101067.03
2019-05-06T04:42:44.305Z,101061.92
2019-05-06T04:45:16.651Z,101062.05
2019-05-06T04:47:39.863Z,101057.19
2019-05-06T04:50:07.798Z,101061.67
2019-05-06T04:52:35.092Z,101065.39
2019-05-06T04:55:03.359Z,101063.72
2019-05-06T04:57:33.645Z,101064.95
2019-05-06T05:00:00.027Z,101066.22
2019-05-06T05:02:27.224Z,101063.87
2019-05-06T05:04:54.588Z,101065.23
2019-05-06T05:07:22.453Z,101069.51
2019-05-06T05:09:53.856Z,101069.98
2019-05-06T05:12:33.447Z,101070.59
2019-05-06T05:15:08.898Z,101076.70
2019-05-06T05:17:42.103Z,101076.53
2019-05-06T05:20:10.033Z,101081.13
2019-05-06T05:22:37.512Z,101084.05
2019-05-06T05:25:04.848Z,101088.72
2019-05-06T05:27:32.898Z,101090.51
2019-05-06T05:30:01.941Z,101093.91
2019-05-06T05:32:31.979Z,101097.61
2019-05-06T05:34:58.716Z,101094.83
2019-05-06T05:37:25.908Z,101092.59
2019-05-06T05:39:53.157Z,101092.81
2019-05-06T05:42:42.918Z,101102.50
2019-05-06T05:45:12.840Z,101105.73
2019-05-06T05:47:42.405Z,101108.42
2019-05-06T05:50:26.930Z,101112.28
2019-05-06T05:52:54.151Z,101112.61
2019-05-06T05:55:21.943Z,101113.79
2019-05-06T05:57:49.228Z,101106.04
2019-05-06T06:00:17.258Z,101109.86
2019-05-06T06:02:44.441Z,101103.53
2019-05-06T06:05:12.423Z,101108.94
2019-05-06T06:07:39.617Z,101121.62
2019-05-06T06:10:15.468Z,101114.05
2019-05-06T06:12:42.947Z,101114.52
2019-05-06T06:15:19.452Z,101111.40
2019-05-06T06:18:05.257Z,101109.73
2019-05-06T06:21:17.938Z,101108.78
2019-05-06T06:23:39.110Z,101104.72
2019-05-06T06:26:06.581Z,101115.64
2019-05-06T06:28:34.470Z,101110.00
2019-05-06T06:31:17.028Z,101108.42
2019-05-06T06:33:44.236Z,101110.77
2019-05-06T06:36:24.515Z,101111.17
2019-05-06T06:38:55.155Z,101102.84
2019-05-06T06:41:22.905Z,101103.00
2019-05-06T06:43:52.954Z,101110.98
2019-05-06T06:46:22.306Z,101108.01
2019-05-06T06:48:49.594Z,101112.11
2019-05-06T06:51:16.764Z,101115.66
2019-05-06T06:53:44.304Z,101110.81
2019-05-06T06:56:36.729Z,101108.48
2019-05-06T06:59:29.409Z,101111.90
2019-05-06T07:02:19.572Z,101105.66
2019-05-06T07:04:54.216Z,101107.27
2019-05-06T07:07:22.945Z,101103.34
2019-05-06T07:09:50.124Z,101112.14
2019-05-06T07:12:17.393Z,101110.54
2019-05-06T07:14:44.537Z,101107.99
2019-05-06T07:17:13.340Z,101105.46
2019-05-06T07:19:45.363Z,101105.46
2019-05-06T07:22:12.847Z,101115.80
2019-05-06T07:24:40.001Z,101109.62
2019-05-06T07:27:13.136Z,101109.44
2019-05-06T07:29:47.742Z,101111.51
2019-05-06T07:32:09.461Z,101104.31
2019-05-06T07:34:36.658Z,101110.34
2019-05-06T07:37:03.857Z,101122.80
2019-05-06T07:39:33.381Z,101123.98
2019-05-06T07:42:02.458Z,101109.19
2019-05-06T07:44:39.494Z,101112.45
2019-05-06T07:47:15.584Z,101119.05
2019-05-06T07:49:43.284Z,101112.01
2019-05-06T07:52:12.368Z,101110.73
2019-05-06T07:54:39.691Z,101107.28
2019-05-06T07:57:06.756Z,101108.19
2019-05-06T07:59:33.907Z,101103.30
2019-05-06T08:02:02.260Z,101101.04
2019-05-06T08:04:29.513Z,101103.78
2019-05-06T08:06:56.678Z,101109.60
2019-05-06T08:09:23.913Z,101112.20
2019-05-06T08:11:52.988Z,101111.84
2019-05-06T08:14:22.427Z,101121.06
2019-05-06T08:17:02.485Z,101119.36
2019-05-06T08:19:29.761Z,101131.33
2019-05-06T08:21:58.858Z,101136.22
2019-05-06T08:24:26.087Z,101141.05
2019-05-06T08:26:53.245Z,101136.94
2019-05-06T08:29:22.487Z,101143.02
2019-05-06T08:31:52.200Z,101142.95
2019-05-06T08:34:18.940Z,101141.42
2019-05-06T08:37:04.179Z,101145.33
2019-05-06T08:39:32.652Z,101122.05
2019-05-06T08:41:59.966Z,101108.77
2019-05-06T08:44:27.162Z,101105.81
2019-05-06T08:46:54.349Z,101105.72
2019-05-06T08:49:22.555Z,101113.20
2019-05-06T08:52:02.407Z,101098.66
2019-05-06T08:54:39.926Z,101105.20
2019-05-06T08:57:07.186Z,101106.97
2019-05-06T08:59:34.257Z,101102.74
2019-05-06T09:02:03.133Z,101112.17
2019-05-06T09:04:32.064Z,101095.11
2019-05-06T09:06:59.429Z,101098.73
2019-05-06T09:09:26.600Z,101094.77
2019-05-06T09:11:53.895Z,101094.84
2019-05-06T09:14:23.191Z,101092.96
2019-05-06T09:16:53.543Z,101096.34
2019-05-06T09:19:19.957Z,101087.13
2019-05-06T09:21:47.121Z,101093.72
2019-05-06T09:24:14.277Z,101086.12
2019-05-06T09:26:55.122Z,101085.34
2019-05-06T09:29:32.687Z,101095.96
2019-05-06T09:32:03.499Z,101086.90
2019-05-06T09:34:48.319Z,101088.14
2019-05-06T09:37:17.396Z,101097.56
2019-05-06T09:39:44.777Z,101106.12
2019-05-06T09:42:12.945Z,101104.21
2019-05-06T09:44:42.640Z,101094.39
2019-05-06T09:47:13.440Z,101088.38
2019-05-06T09:49:42.554Z,101089.13
2019-05-06T09:52:12.818Z,101092.98
2019-05-06T09:54:45.863Z,101094.58
2019-05-06T09:57:22.123Z,101094.91
2019-05-06T09:59:50.164Z,101089.67
2019-05-06T10:02:17.378Z,101091.53
2019-05-06T10:04:44.574Z,101085.55
2019-05-06T10:07:12.200Z,101089.07
2019-05-06T10:09:39.646Z,101081.88
2019-05-06T10:12:06.867Z,101086.39
2019-05-06T10:14:34.071Z,101082.50
2019-05-06T10:17:04.389Z,101080.13
2019-05-06T10:19:32.115Z,101076.77
2019-05-06T10:21:59.406Z,101074.23
2019-05-06T10:24:26.569Z,101077.47
2019-05-06T10:26:56.899Z,101066.10
2019-05-06T10:29:49.627Z,101071.33
2019-05-06T10:32:32.793Z,101070.34
2019-05-06T10:34:59.971Z,101067.45
2019-05-06T10:37:42.222Z,101070.63
2019-05-06T10:40:22.701Z,101066.55
2019-05-06T10:42:57.485Z,101080.15
2019-05-06T10:45:28.972Z,101079.01
2019-05-06T10:47:56.250Z,101080.20
2019-05-06T10:50:23.532Z,101076.88
2019-05-06T10:53:08.997Z,101069.28
2019-05-06T10:55:37.854Z,101066.09
2019-05-06T10:58:05.060Z,101063.49
2019-05-06T11:00:33.133Z,101058.71
2019-05-06T11:03:22.436Z,101060.97
2019-05-06T11:05:49.934Z,101059.66
2019-05-06T11:08:17.092Z,101062.39
2019-05-06T11:10:45.642Z,101053.58
2019-05-06T11:13:13.270Z,101053.86
2019-05-06T11:15:40.324Z,101051.18
2019-05-06T11:18:07.781Z,101057.91
2019-05-06T11:20:34.958Z,101056.23
2019-05-06T11:23:02.275Z,101049.50
2019-05-06T11:25:29.421Z,101053.85
2019-05-06T11:27:56.607Z,101051.64
2019-05-06T11:30:42.551Z,101050.04
2019-05-06T11:33:22.368Z,101050.97
2019-05-06T11:35:55.232Z,101046.60
2019-05-06T11:38:22.855Z,101053.66
2019-05-06T11:40:52.688Z,101044.05
2019-05-06T11:43:19.306Z,101043.53
2019-05-06T11:45:46.469Z,101043.95
2019-05-06T11:48:14.681Z,101038.49
2019-05-06T11:50:44.438Z,101038.83
2019-05-06T11:53:12.515Z,101023.33
2019-05-06T11:55:39.697Z,101028.84
2019-05-06T11:58:26.512Z,101030.58
2019-05-06T12:00:53.781Z,101032.42
2019-05-06T12:03:22.902Z,101027.63
2019-05-06T12:05:50.112Z,101021.48
2019-05-06T12:08:17.302Z,101023.29
2019-05-06T12:10:44.677Z,101022.66
2019-05-06T12:13:12.296Z,101016.93
2019-05-06T12:15:39.442Z,101012.64
2019-05-06T12:18:06.505Z,101009.44
2019-05-06T12:20:33.899Z,101013.03
2019-05-06T12:23:04.282Z,101006.11
2019-05-06T12:25:30.474Z,101011.75
2019-05-06T12:27:57.900Z,101008.78
2019-05-06T12:30:25.485Z,101007.91
2019-05-06T12:33:13.033Z,101006.73
2019-05-06T12:35:43.332Z,101014.78
2019-05-06T12:38:26.489Z,101011.09
2019-05-06T12:40:42.920Z,101008.11
2019-05-06T12:43:28.771Z,101001.23
2019-05-06T12:45:57.947Z,101008.77
2019-05-06T12:48:33.165Z,101005.45
2019-05-06T12:51:03.064Z,101007.27
2019-05-06T12:53:32.610Z,101006.25
2019-05-06T12:55:59.809Z,101008.94
2019-05-06T12:58:26.980Z,101008.12
2019-05-06T13:00:54.491Z,101008.28
2019-05-06T13:03:23.453Z,101008.93
2019-05-06T13:05:52.103Z,101018.23
2019-05-06T13:08:21.075Z,101012.63
2019-05-06T13:10:48.492Z,101020.10
2019-05-06T13:13:15.937Z,101015.22
2019-05-06T13:15:43.645Z,101005.41
2019-05-06T13:18:10.753Z,101000.28
2019-05-06T13:20:37.854Z,101005.39
2019-05-06T13:23:20.739Z,101010.57
2019-05-06T13:25:45.125Z,101004.92
2019-05-06T13:28:12.936Z,100993.90
2019-05-06T13:30:40.483Z,100994.20
2019-05-06T13:33:14.276Z,100993.23
2019-05-06T13:35:41.975Z,100996.89
2019-05-06T13:38:09.514Z,101000.55
2019-05-06T13:40:51.272Z,100996.87
2019-05-06T13:43:43.813Z,101000.73
2019-05-06T13:46:20.210Z,101001.73
2019-05-06T13:49:10.110Z,100999.06
2019-05-06T13:51:38.032Z,101000.03
2019-05-06T13:54:05.351Z,101002.19
2019-05-06T13:56:33.265Z,100993.02
2019-05-06T13:59:00.742Z,100991.67
2019-05-06T14:01:32.033Z,100995.23
2019-05-06T14:03:59.107Z,101003.42
2019-05-06T14:06:26.380Z,100994.06
2019-05-06T14:08:53.577Z,100989.86
2019-05-06T14:11:22.913Z,100991.39
2019-05-06T14:13:49.847Z,100998.08
2019-05-06T14:16:17.026Z,100994.88
2019-05-06T14:18:44.248Z,100993.88
2019-05-06T14:21:12.395Z,100996.08
2019-05-06T14:23:39.874Z,100992.06
2019-05-06T14:26:16.986Z,100992.19
2019-05-06T14:29:02.819Z,100994.20
2019-05-06T14:31:36.434Z,100998.20
2019-05-06T14:34:03.712Z,100989.59
2019-05-06T14:36:32.763Z,100993.56
2019-05-06T14:39:04.714Z,100994.19
2019-05-06T14:41:29.200Z,100993.42
2019-05-06T14:43:56.298Z,100993.61
2019-05-06T14:46:23.840Z,100996.05
2019-05-06T14:48:53.360Z,100994.84
2019-05-06T14:51:22.164Z,100993.13
2019-05-06T14:53:49.253Z,100989.31
2019-05-06T14:56:22.707Z,100996.22
2019-05-06T14:59:08.294Z,101001.17
2019-05-06T15:01:36.736Z,101005.54
2019-05-06T15:04:04.340Z,101001.34
2019-05-06T15:06:33.107Z,101010.23
2019-05-06T15:09:03.726Z,101005.19
2019-05-06T15:11:32.000Z,101007.63
2019-05-06T15:13:59.259Z,101003.05
2019-05-06T15:16:26.449Z,101003.09
2019-05-06T15:18:53.621Z,101007.77
2019-05-06T15:21:33.801Z,101003.92
2019-05-06T15:23:50.007Z,101005.05
2019-05-06T15:26:17.213Z,101003.98
2019-05-06T15:28:45.014Z,100998.60
2019-05-06T15:31:26.334Z,100998.88
2019-05-06T15:33:54.788Z,101006.45
2019-05-06T15:36:27.558Z,100999.45
2019-05-06T15:38:54.760Z,101006.50
2019-05-06T15:41:22.372Z,101010.87
2019-05-06T15:43:49.623Z,101013.25
2019-05-06T15:46:16.776Z,101016.55
2019-05-06T15:48:44.057Z,101019.05
2019-05-06T15:51:12.267Z,101017.00
2019-05-06T15:53:39.510Z,101018.77
2019-05-06T15:56:06.705Z,101022.27
2019-05-06T15:58:34.201Z,101022.03
2019-05-06T16:01:03.150Z,101015.97
2019-05-06T16:03:32.807Z,101014.39
2019-05-06T16:05:59.448Z,101018.25
2019-05-06T16:08:26.636Z,101021.94
2019-05-06T16:10:58.486Z,101020.05
2019-05-06T16:13:22.959Z,101021.46
2019-05-06T16:15:50.152Z,101014.30
2019-05-06T16:18:17.824Z,101014.85
2019-05-06T16:20:45.201Z,101018.27
2019-05-06T16:23:32.736Z,101016.81
2019-05-06T16:26:02.820Z,101009.61
2019-05-06T16:28:30.045Z,101013.72
2019-05-06T16:30:57.270Z,101013.43
2019-05-06T16:33:24.461Z,101010.38
2019-05-06T16:35:52.265Z,101008.84
2019-05-06T16:38:19.643Z,101011.69
2019-05-06T16:40:47.112Z,101011.89
2019-05-06T16:43:14.323Z,101009.90
2019-05-06T16:45:42.748Z,101008.75
2019-05-06T16:48:10.299Z,101005.66
2019-05-06T16:50:37.372Z,100999.72
2019-05-06T16:53:04.717Z,100994.10
2019-05-06T16:55:55.449Z,100997.58
2019-05-06T16:58:24.571Z,100996.44
2019-05-06T17:00:52.429Z,100996.91
2019-05-06T17:03:25.578Z,100999.47
2019-05-06T17:06:06.789Z,100997.98
2019-05-06T17:08:36.501Z,100998.03
2019-05-06T17:11:04.898Z,100996.43
2019-05-06T17:13:34.043Z,100995.80
2019-05-06T17:16:02.497Z,100992.58
2019-05-06T17:18:29.890Z,100995.23
2019-05-06T17:20:57.075Z,101000.79
2019-05-06T17:23:24.284Z,101003.88
2019-05-06T17:25:52.125Z,101001.67
2019-05-06T17:28:26.448Z,101005.77
2019-05-06T17:31:10.212Z,101009.20
2019-05-06T17:33:42.869Z,101004.95
2019-05-06T17:36:12.676Z,101007.48
2019-05-06T17:38:45.562Z,101014.28
2019-05-06T17:41:12.634Z,101011.52
2019-05-06T17:43:41.026Z,101012.87
2019-05-06T17:46:08.922Z,101014.48
2019-05-06T17:48:42.586Z,101017.75
2019-05-06T17:51:21.735Z,101016.44
2019-05-06T17:53:52.664Z,101007.94
2019-05-06T17:56:22.105Z,101007.56
2019-05-06T17:58:49.306Z,101010.95
2019-05-06T18:01:19.989Z,101015.77
2019-05-06T18:03:47.143Z,101013.48
2019-05-06T18:06:14.489Z,101018.06
2019-05-06T18:08:43.274Z,101016.00
2019-05-06T18:11:12.756Z,101019.01
2019-05-06T18:13:39.762Z,101018.02
2019-05-06T18:16:06.956Z,101018.49
2019-05-06T18:18:34.112Z,101015.74
2019-05-06T18:21:02.564Z,101021.23
2019-05-06T18:23:29.688Z,101021.09
2019-05-06T18:25:56.901Z,101013.72
2019-05-06T18:28:24.013Z,101018.69
2019-05-06T18:30:52.116Z,101013.02
2019-05-06T18:33:19.635Z,101018.07
2019-05-06T18:35:46.749Z,101018.09
2019-05-06T18:38:13.920Z,101015.42
2019-05-06T18:40:42.373Z,101012.53
2019-05-06T18:43:09.982Z,101016.02
2019-05-06T18:45:37.160Z,101022.80
2019-05-06T18:48:04.221Z,101024.83
2019-05-06T18:50:32.009Z,101029.02
2019-05-06T18:52:59.332Z,101033.08
2019-05-06T18:55:26.492Z,101037.99
2019-05-06T18:57:53.729Z,101035.98
2019-05-06T19:00:22.453Z,101038.55
2019-05-06T19:02:52.055Z,101041.33
2019-05-06T19:05:29.406Z,101046.66
2019-05-06T19:07:56.862Z,101048.44
2019-05-06T19:10:26.795Z,101046.33
2019-05-06T19:12:54.473Z,101052.24
2019-05-06T19:15:22.032Z,101055.41
2019-05-06T19:17:49.274Z,101056.18
2019-05-06T19:20:16.697Z,101058.68
2019-05-06T19:22:43.914Z,101061.72
2019-05-06T19:25:14.345Z,101067.48
2019-05-06T19:27:42.019Z,101064.24
2019-05-06T19:30:09.687Z,101066.09
2019-05-06T19:32:36.854Z,101070.98
2019-05-06T19:35:04.311Z,101069.75
2019-05-06T19:37:32.843Z,101068.16
2019-05-06T19:40:02.682Z,101067.22
2019-05-06T19:42:43.688Z,101071.16
2019-05-06T19:44:58.836Z,101077.56
2019-05-06T19:47:26.353Z,101068.72
2019-05-06T19:49:53.587Z,101077.58
2019-05-06T19:52:20.818Z,101070.70
2019-05-06T19:54:51.929Z,101067.20
2019-05-06T19:57:18.848Z,101068.84
2019-05-06T19:59:46.262Z,101069.30
2019-05-06T20:02:13.812Z,101060.82
2019-05-06T20:04:44.467Z,101064.57
2019-05-06T20:07:22.882Z,101067.66
2019-05-06T20:10:12.718Z,101065.16
2019-05-06T20:12:58.474Z,101062.25
2019-05-06T20:15:34.001Z,101064.22
2019-05-06T20:18:03.038Z,101064.89
2019-05-06T20:20:34.603Z,101068.94
2019-05-06T20:22:59.442Z,101063.71
2019-05-06T20:25:26.670Z,101063.53
2019-05-06T20:27:53.921Z,101064.88
2019-05-06T20:30:21.903Z,101069.05
2019-05-06T20:32:49.202Z,101065.50
2019-05-06T20:35:16.360Z,101064.59
2019-05-06T20:37:43.931Z,101062.94
2019-05-06T20:40:14.507Z,101063.33
2019-05-06T20:42:42.635Z,101061.22
2019-05-06T20:45:10.040Z,101064.88
2019-05-06T20:47:38.096Z,101063.11
2019-05-06T20:50:06.756Z,101070.98
2019-05-06T20:52:33.960Z,101063.45
2019-05-06T20:55:02.890Z,101063.97
2019-05-06T20:57:30.256Z,101057.86
2019-05-06T20:59:57.486Z,101067.03
2019-05-06T21:02:25.878Z,101068.63
2019-05-06T21:04:53.020Z,101069.78
2019-05-06T21:07:20.217Z,101070.70
2019-05-06T21:09:47.298Z,101067.87
2019-05-06T21:12:14.454Z,101066.03
2019-05-06T21:14:42.229Z,101063.94
2019-05-06T21:17:09.435Z,101063.08
2019-05-06T21:19:36.592Z,101062.30
2019-05-06T21:22:03.814Z,101065.80
2019-05-06T21:24:32.540Z,101062.41
2019-05-06T21:27:02.644Z,101063.95
2019-05-06T21:29:29.532Z,101066.30
2019-05-06T21:31:56.697Z,101062.36
2019-05-06T21:34:23.861Z,101058.31
2019-05-06T21:36:53.097Z,101061.50
2019-05-06T21:39:22.251Z,101059.50
2019-05-06T21:41:49.407Z,101058.09
2019-05-06T21:44:16.887Z,101063.17
2019-05-06T21:46:43.929Z,101065.39
2019-05-06T21:49:12.152Z,101068.61
2019-05-06T21:51:39.457Z,101064.00
2019-05-06T21:54:06.839Z,101058.81
2019-05-06T21:56:33.990Z,101058.08
2019-05-06T21:59:02.012Z,101060.82
2019-05-06T22:01:29.454Z,101055.09
2019-05-06T22:03:56.615Z,101048.92
2019-05-06T22:06:23.799Z,101052.81
2019-05-06T22:08:51.890Z,101053.59
2019-05-06T22:11:19.149Z,101049.00
2019-05-06T22:13:57.935Z,101045.73
2019-05-06T22:16:15.442Z,101051.58
2019-05-06T22:18:43.315Z,101055.62
2019-05-06T22:21:22.518Z,101054.89
2019-05-06T22:23:54.393Z,101053.08
2019-05-06T22:26:23.130Z,101050.08
2019-05-06T22:28:52.443Z,101050.27
2019-05-06T22:31:22.217Z,101051.54
2019-05-06T22:33:48.788Z,101042.52
2019-05-06T22:36:16.735Z,101046.98
2019-05-06T22:38:44.316Z,101048.03
2019-05-06T22:41:11.626Z,101050.02
2019-05-06T22:43:38.785Z,101046.66
2019-05-06T22:46:05.968Z,101042.80
2019-05-06T22:48:33.130Z,101045.16
2019-05-06T22:51:02.553Z,101042.25
2019-05-06T22:53:29.526Z,101044.64
2019-05-06T22:55:59.027Z,101045.56
2019-05-06T22:58:26.272Z,101047.00
2019-05-06T23:00:54.172Z,101045.69
2019-05-06T23:03:22.868Z,101043.14
2019-05-06T23:05:50.032Z,101044.00
2019-05-06T23:08:17.175Z,101038.98
2019-05-06T23:10:44.676Z,101047.09
2019-05-06T23:13:12.538Z,101044.92
2019-05-06T23:15:41.903Z,101041.83
2019-05-06T23:18:09.199Z,101043.59
2019-05-06T23:20:36.362Z,101044.36
2019-05-06T23:23:04.935Z,101047.15
2019-05-06T23:25:32.681Z,101043.11
2019-05-06T23:27:59.898Z,101043.20
2019-05-06T23:30:27.095Z,101043.05
2019-05-06T23:32:54.241Z,101036.48
2019-05-06T23:35:22.024Z,101031.58
2019-05-06T23:38:25.680Z,101025.83
2019-05-06T23:41:29.079Z,101033.94
2019-05-06T23:44:45.425Z,101027.81
2019-05-06T23:47:38.676Z,101032.98
2019-05-06T23:50:42.883Z,101029.13
2019-05-06T23:53:46.498Z,101028.67
2019-05-06T23:56:43.506Z,101026.26
2019-05-06T23:59:12.470Z,101022.59
